createdAt,value
2022-10-23T00:00:41.763Z,12.52
2022-10-23T00:05:41.440Z,11.98
2022-10-23T00:08:09.557Z,9.20
2022-10-23T00:10:37.371Z,13.68
2022-10-23T00:13:06.459Z,13.10
2022-10-23T00:15:36.758Z,14.75
2022-10-23T00:18:05.111Z,10.75
2022-10-23T00:20:32.809Z,12.55
2022-10-23T00:23:00.568Z,8.65
2022-10-23T00:25:28.335Z,13.45
2022-10-23T00:27:56.071Z,9.90
2022-10-23T00:30:25.246Z,13.60
2022-10-23T00:32:53.029Z,12.90
2022-10-23T00:35:20.782Z,12.27
2022-10-23T00:37:48.643Z,8.65
2022-10-23T00:40:16.412Z,10.93
2022-10-23T00:42:44.378Z,9.95
2022-10-23T00:45:20.714Z,11.40
2022-10-23T00:47:50.264Z,9.68
2022-10-23T00:50:18.506Z,8.23
2022-10-23T00:52:49.572Z,11.20
2022-10-23T00:55:19.302Z,12.48
2022-10-23T00:57:48.999Z,9.60
2022-10-23T01:00:20.641Z,11.73
2022-10-23T01:02:50.186Z,11.32
2022-10-23T01:05:18.621Z,10.93
2022-10-23T01:07:53.829Z,10.57
2022-10-23T01:10:31.482Z,9.27
2022-10-23T01:13:04.944Z,8.35
2022-10-23T01:15:38.491Z,11.23
2022-10-23T01:18:17.984Z,10.95
2022-10-23T01:20:49.325Z,12.60
2022-10-23T01:23:55.060Z,11.20
2022-10-23T01:26:50.278Z,10.57
2022-10-23T01:29:25.661Z,9.05
2022-10-23T01:32:00.002Z,10.68
2022-10-23T01:34:33.137Z,14.95
2022-10-23T01:37:03.267Z,9.65
2022-10-23T01:39:36.957Z,11.82
2022-10-23T01:42:09.703Z,12.50
2022-10-23T01:44:43.798Z,12.40
2022-10-23T01:47:14.177Z,13.90
2022-10-23T01:49:43.886Z,10.48
2022-10-23T01:52:15.131Z,11.93
2022-10-23T01:54:45.854Z,10.63
2022-10-23T01:57:17.882Z,13.45
2022-10-23T01:59:50.739Z,15.88
2022-10-23T02:02:20.115Z,11.38
2022-10-23T02:04:57.503Z,13.88
2022-10-23T02:07:25.657Z,13.00
2022-10-23T02:09:53.672Z,13.25
2022-10-23T02:15:07.203Z,11.07
2022-10-23T02:17:47.275Z,13.73
2022-10-23T02:20:21.252Z,11.88
2022-10-23T02:22:58.565Z,14.32
2022-10-23T02:25:33.292Z,13.20
2022-10-23T02:30:36.690Z,14.70
2022-10-23T02:33:06.330Z,11.65
2022-10-23T02:35:34.305Z,12.02
2022-10-23T02:40:36.897Z,12.05
2022-10-23T02:45:46.216Z,10.00
2022-10-23T02:48:20.178Z,13.30
2022-10-23T02:51:01.905Z,11.13
2022-10-23T02:53:38.287Z,11.18
2022-10-23T02:56:14.191Z,9.88
2022-10-23T02:58:46.833Z,11.00
2022-10-23T03:01:19.163Z,13.05
2022-10-23T03:03:52.549Z,12.65
2022-10-23T03:06:20.659Z,12.82
2022-10-23T03:08:53.430Z,14.43
2022-10-23T03:11:21.230Z,11.40
2022-10-23T03:13:48.969Z,12.63
2022-10-23T03:16:18.000Z,15.48
2022-10-23T03:18:45.666Z,14.10
2022-10-23T03:21:13.469Z,10.77
2022-10-23T03:23:41.233Z,12.65
2022-10-23T03:26:09.128Z,14.07
2022-10-23T03:28:36.855Z,9.95
2022-10-23T03:31:05.191Z,13.57
2022-10-23T03:33:34.236Z,11.90
2022-10-23T03:36:02.004Z,14.60
2022-10-23T03:38:29.926Z,14.00
2022-10-23T03:40:57.616Z,11.40
2022-10-23T03:43:25.294Z,12.05
2022-10-23T03:45:53.049Z,10.63
2022-10-23T03:48:20.737Z,15.02
2022-10-23T03:50:49.922Z,11.77
2022-10-23T03:53:17.646Z,11.10
2022-10-23T03:55:45.939Z,16.80
2022-10-23T03:58:13.720Z,10.13
2022-10-23T04:03:14.139Z,10.25
2022-10-23T04:05:42.133Z,11.88
2022-10-23T04:10:41.871Z,9.38
2022-10-23T04:13:09.580Z,10.23
2022-10-23T04:15:37.326Z,11.18
2022-10-23T04:18:05.419Z,11.48
2022-10-23T04:23:00.760Z,13.63
2022-10-23T04:25:29.873Z,11.43
2022-10-23T04:27:57.505Z,13.10
2022-10-23T04:30:25.194Z,11.77
2022-10-23T04:32:53.305Z,11.75
2022-10-23T04:37:48.951Z,9.07
2022-10-23T04:40:16.781Z,10.35
2022-10-23T04:42:45.878Z,8.43
2022-10-23T04:45:13.735Z,12.00
2022-10-23T04:47:41.377Z,12.85
2022-10-23T04:50:09.308Z,12.20
2022-10-23T04:52:37.011Z,14.30
2022-10-23T04:55:05.347Z,12.48
2022-10-23T04:57:33.063Z,10.00
2022-10-23T05:00:02.349Z,13.63
2022-10-23T05:02:30.098Z,9.40
2022-10-23T05:04:57.799Z,13.35
2022-10-23T05:07:25.505Z,8.80
2022-10-23T05:09:53.245Z,10.93
2022-10-23T05:12:20.937Z,11.75
2022-10-23T05:14:48.650Z,11.25
2022-10-23T05:17:22.537Z,10.45
2022-10-23T05:19:54.531Z,15.50
2022-10-23T05:22:25.243Z,10.73
2022-10-23T05:24:53.219Z,10.20
2022-10-23T05:27:21.023Z,10.57
2022-10-23T05:29:51.871Z,10.40
2022-10-23T05:34:54.537Z,11.63
2022-10-23T05:37:22.743Z,9.27
2022-10-23T05:39:50.460Z,8.63
2022-10-23T05:42:18.246Z,9.70
2022-10-23T05:44:45.969Z,9.73
2022-10-23T05:47:13.683Z,9.85
2022-10-23T05:49:42.811Z,10.25
2022-10-23T05:52:12.111Z,11.05
2022-10-23T05:54:39.906Z,9.13
2022-10-23T05:57:07.762Z,10.02
2022-10-23T05:59:35.545Z,14.70
2022-10-23T06:02:03.359Z,9.52
2022-10-23T06:04:31.251Z,12.45
2022-10-23T06:07:00.299Z,10.35
2022-10-23T06:09:27.993Z,8.82
2022-10-23T06:11:55.695Z,17.02
2022-10-23T06:14:23.379Z,11.73
2022-10-23T06:16:51.117Z,12.30
2022-10-23T06:19:18.801Z,13.35
2022-10-23T06:21:46.553Z,11.80
2022-10-23T06:24:15.669Z,10.07
2022-10-23T06:26:43.300Z,9.52
2022-10-23T06:29:10.993Z,11.45
2022-10-23T06:31:38.669Z,12.38
2022-10-23T06:34:07.059Z,11.88
2022-10-23T06:36:34.964Z,12.82
2022-10-23T06:39:02.628Z,10.75
2022-10-23T06:41:31.750Z,13.43
2022-10-23T06:43:59.407Z,11.38
2022-10-23T06:46:29.854Z,10.20
2022-10-23T06:48:57.497Z,11.93
2022-10-23T06:51:29.578Z,14.13
2022-10-23T06:53:57.848Z,13.45
2022-10-23T06:56:29.383Z,10.45
2022-10-23T06:58:58.483Z,12.85
2022-10-23T07:01:26.409Z,12.65
2022-10-23T07:06:21.689Z,10.30
2022-10-23T07:08:49.654Z,13.45
2022-10-23T07:13:46.706Z,9.55
2022-10-23T07:16:17.877Z,10.35
2022-10-23T07:18:45.999Z,10.50
2022-10-23T07:21:13.788Z,10.88
2022-10-23T07:23:41.549Z,11.68
2022-10-23T07:26:12.075Z,12.40
2022-10-23T07:28:41.379Z,11.00
2022-10-23T07:31:09.659Z,11.70
2022-10-23T07:33:39.741Z,12.75
2022-10-23T07:36:09.228Z,10.77
2022-10-23T07:38:37.260Z,11.50
2022-10-23T07:43:36.741Z,13.82
2022-10-23T07:46:04.868Z,13.85
2022-10-23T07:48:32.569Z,11.00
2022-10-23T07:51:03.559Z,16.77
2022-10-23T07:53:31.338Z,10.00
2022-10-23T07:56:01.258Z,11.93
2022-10-23T07:58:29.942Z,12.65
2022-10-23T08:00:59.451Z,12.77
2022-10-23T08:03:27.185Z,13.15
2022-10-23T08:05:55.737Z,10.02
2022-10-23T08:08:25.367Z,9.57
2022-10-23T08:10:55.100Z,12.02
2022-10-23T08:13:23.269Z,12.65
2022-10-23T08:15:53.074Z,12.00
2022-10-23T08:18:21.060Z,12.02
2022-10-23T08:23:20.248Z,11.95
2022-10-23T08:25:49.396Z,12.35
2022-10-23T08:28:17.013Z,13.18
2022-10-23T08:30:44.708Z,12.55
2022-10-23T08:33:12.458Z,8.75
2022-10-23T08:35:40.608Z,12.68
2022-10-23T08:38:08.370Z,13.30
2022-10-23T08:40:36.862Z,11.35
2022-10-23T08:43:14.223Z,11.65
2022-10-23T08:45:46.218Z,10.60
2022-10-23T08:48:20.146Z,10.27
2022-10-23T08:50:54.005Z,11.05
2022-10-23T08:53:27.329Z,11.77
2022-10-23T08:56:02.189Z,11.10
2022-10-23T08:58:37.310Z,11.43
2022-10-23T09:01:27.805Z,15.23
2022-10-23T09:03:55.648Z,11.15
2022-10-23T09:06:37.875Z,10.90
2022-10-23T09:09:37.301Z,8.90
2022-10-23T09:12:10.195Z,10.63
2022-10-23T09:15:13.867Z,11.40
2022-10-23T09:17:44.024Z,10.52
2022-10-23T09:20:21.510Z,10.77
2022-10-23T09:22:50.852Z,7.75
2022-10-23T09:25:21.174Z,7.75
2022-10-23T09:27:56.165Z,11.02
2022-10-23T09:30:35.019Z,8.18
2022-10-23T09:33:15.102Z,8.27
2022-10-23T09:35:54.573Z,7.43
2022-10-23T09:38:28.870Z,10.00
2022-10-23T09:40:57.076Z,9.85
2022-10-23T09:43:27.483Z,8.05
2022-10-23T09:46:01.857Z,8.95
2022-10-23T09:48:29.900Z,9.23
2022-10-23T09:50:59.444Z,8.73
2022-10-23T09:53:34.941Z,7.55
2022-10-23T09:56:04.995Z,8.88
2022-10-23T09:58:35.813Z,7.43
2022-10-23T10:01:05.825Z,9.90
2022-10-23T10:03:33.637Z,10.98
2022-10-23T10:06:02.857Z,8.80
2022-10-23T10:08:40.306Z,9.00
2022-10-23T10:11:15.509Z,6.55
2022-10-23T10:14:02.609Z,12.07
2022-10-23T10:16:43.969Z,8.75
2022-10-23T10:21:53.994Z,7.95
2022-10-23T10:24:26.011Z,6.53
2022-10-23T10:27:02.637Z,7.70
2022-10-23T10:29:45.731Z,8.00
2022-10-23T10:32:32.093Z,6.68
2022-10-23T10:35:20.437Z,8.73
2022-10-23T10:38:12.589Z,8.70
2022-10-23T10:40:43.727Z,7.70
2022-10-23T10:43:30.660Z,11.45
2022-10-23T10:46:05.044Z,7.38
2022-10-23T10:48:43.248Z,9.38
2022-10-23T10:51:19.501Z,6.45
2022-10-23T10:54:02.480Z,6.55
2022-10-23T10:56:34.868Z,8.98
2022-10-23T10:59:06.942Z,9.00
2022-10-23T11:01:38.309Z,8.73
2022-10-23T11:04:14.827Z,7.63
2022-10-23T11:06:47.226Z,7.47
2022-10-23T11:09:20.927Z,8.60
2022-10-23T11:11:49.875Z,7.97
2022-10-23T11:14:18.681Z,8.48
2022-10-23T11:16:48.979Z,6.22
2022-10-23T11:19:24.731Z,8.68
2022-10-23T11:21:59.387Z,6.70
2022-10-23T11:24:57.343Z,8.10
2022-10-23T11:27:42.519Z,6.43
2022-10-23T11:30:31.733Z,6.32
2022-10-23T11:33:46.816Z,6.57
2022-10-23T11:36:19.276Z,7.72
2022-10-23T11:38:50.068Z,9.35
2022-10-23T11:41:25.358Z,7.93
2022-10-23T11:43:56.972Z,6.43
2022-10-23T11:46:33.241Z,7.97
2022-10-23T11:49:03.134Z,9.45
2022-10-23T11:51:34.812Z,7.07
2022-10-23T11:54:24.332Z,5.88
2022-10-23T11:56:55.649Z,7.20
2022-10-23T11:59:28.931Z,6.53
2022-10-23T12:01:59.079Z,7.15
2022-10-23T12:04:31.632Z,6.78
2022-10-23T12:07:02.756Z,7.10
2022-10-23T12:09:37.352Z,7.07
2022-10-23T12:12:17.887Z,8.70
2022-10-23T12:14:46.905Z,8.27
2022-10-23T12:17:36.895Z,5.57
2022-10-23T12:20:23.760Z,8.07
2022-10-23T12:23:04.069Z,6.47
2022-10-23T12:25:44.485Z,8.82
2022-10-23T12:28:25.716Z,7.95
2022-10-23T12:33:34.136Z,6.35
2022-10-23T12:36:17.868Z,7.07
2022-10-23T12:38:49.726Z,5.85
2022-10-23T12:41:20.103Z,7.47
2022-10-23T12:43:53.919Z,6.68
2022-10-23T12:46:32.461Z,7.80
2022-10-23T12:49:01.145Z,5.43
2022-10-23T12:51:30.334Z,8.48
2022-10-23T12:53:59.469Z,8.52
2022-10-23T12:56:29.489Z,7.43
2022-10-23T12:59:01.394Z,8.25
2022-10-23T13:01:30.973Z,5.25
2022-10-23T13:04:03.575Z,4.22
2022-10-23T13:06:31.309Z,5.80
2022-10-23T13:11:29.568Z,7.07
2022-10-23T13:13:57.201Z,7.28
2022-10-23T13:16:26.947Z,6.90
2022-10-23T13:18:54.610Z,6.53
2022-10-23T13:23:51.719Z,7.82
2022-10-23T13:26:49.920Z,8.10
2022-10-23T13:29:21.698Z,6.78
2022-10-23T13:31:50.016Z,7.00
2022-10-23T13:34:23.058Z,7.20
2022-10-23T13:37:02.487Z,5.07
2022-10-23T13:39:33.028Z,6.25
2022-10-23T13:42:13.380Z,7.10
2022-10-23T13:44:41.615Z,10.70
2022-10-23T13:47:13.389Z,12.82
2022-10-23T13:49:41.100Z,6.93
2022-10-23T13:54:38.318Z,4.97
2022-10-23T13:57:13.799Z,8.63
2022-10-23T13:59:41.442Z,8.27
2022-10-23T14:02:19.010Z,7.70
2022-10-23T14:04:47.213Z,6.82
2022-10-23T14:07:15.109Z,8.02
2022-10-23T14:09:42.738Z,5.60
2022-10-23T14:14:41.205Z,5.28
2022-10-23T14:17:08.855Z,6.18
2022-10-23T14:22:04.963Z,5.63
2022-10-23T14:27:00.053Z,5.32
2022-10-23T14:29:29.162Z,4.90
2022-10-23T14:31:56.765Z,5.63
2022-10-23T14:34:24.385Z,8.30
2022-10-23T14:39:36.565Z,6.85
2022-10-23T14:42:04.207Z,8.25
2022-10-23T14:47:00.826Z,6.40
2022-10-23T14:49:28.450Z,7.15
2022-10-23T14:51:56.129Z,6.10
2022-10-23T14:56:51.253Z,5.70
2022-10-23T14:59:18.884Z,6.05
2022-10-23T15:01:48.624Z,9.18
2022-10-23T15:04:17.029Z,9.07
2022-10-23T15:06:46.651Z,7.32
2022-10-23T15:09:14.902Z,10.10
2022-10-23T15:11:42.754Z,5.85
2022-10-23T15:14:10.389Z,8.45
2022-10-23T15:19:17.371Z,10.32
2022-10-23T15:21:46.735Z,9.63
2022-10-23T15:24:14.654Z,6.80
2022-10-23T15:26:43.286Z,6.65
2022-10-23T15:29:12.149Z,8.50
2022-10-23T15:31:58.828Z,9.10
2022-10-23T15:34:33.177Z,7.75
2022-10-23T15:37:01.045Z,6.07
2022-10-23T15:39:48.344Z,6.38
2022-10-23T15:42:15.991Z,6.22
2022-10-23T15:44:43.615Z,9.50
2022-10-23T15:47:11.336Z,7.38
2022-10-23T15:54:36.686Z,6.53
2022-10-23T15:57:05.498Z,5.50
2022-10-23T15:59:33.432Z,7.65
2022-10-23T16:02:01.185Z,6.88
2022-10-23T16:04:29.530Z,6.70
2022-10-23T16:06:58.514Z,10.80
2022-10-23T16:09:26.147Z,8.23
2022-10-23T16:11:53.782Z,8.63
2022-10-23T16:14:21.441Z,9.13
2022-10-23T16:16:49.156Z,8.73
2022-10-23T16:21:44.229Z,8.07
2022-10-23T16:24:13.384Z,6.72
2022-10-23T16:26:41.984Z,9.98
2022-10-23T16:29:10.282Z,7.63
2022-10-23T16:31:38.157Z,8.10
2022-10-23T16:34:06.728Z,7.47
2022-10-23T16:36:35.406Z,11.98
2022-10-23T16:39:03.743Z,7.22
2022-10-23T16:41:32.805Z,9.20
2022-10-23T16:46:36.347Z,8.30
2022-10-23T16:49:04.540Z,8.10
2022-10-23T16:51:42.910Z,6.88
2022-10-23T16:54:11.235Z,9.23
2022-10-23T16:59:47.563Z,8.48
2022-10-23T17:02:18.669Z,5.90
2022-10-23T17:05:25.315Z,9.18
2022-10-23T17:07:53.148Z,7.30
2022-10-23T17:10:21.021Z,6.95
2022-10-23T17:12:51.973Z,7.63
2022-10-23T17:15:22.266Z,8.88
2022-10-23T17:17:50.103Z,5.70
2022-10-23T17:20:18.091Z,7.15
2022-10-23T17:22:46.060Z,8.02
2022-10-23T17:25:13.822Z,7.00
2022-10-23T17:30:12.867Z,5.82
2022-10-23T17:32:42.578Z,7.55
2022-10-23T17:35:11.545Z,8.30
2022-10-23T17:37:39.721Z,8.60
2022-10-23T17:40:08.733Z,6.53
2022-10-23T17:42:36.853Z,6.72
2022-10-23T17:45:05.119Z,9.73
2022-10-23T17:47:33.361Z,9.38
2022-10-23T17:50:03.419Z,5.38
2022-10-23T17:52:31.612Z,6.78
2022-10-23T17:54:59.646Z,8.70
2022-10-23T17:57:27.614Z,8.02
2022-10-23T17:59:55.709Z,12.25
2022-10-23T18:02:23.863Z,6.57
2022-10-23T18:04:52.114Z,8.63
2022-10-23T18:07:24.264Z,7.20
2022-10-23T18:09:52.476Z,9.48
2022-10-23T18:12:23.516Z,7.35
2022-10-23T18:14:53.796Z,7.40
2022-10-23T18:17:21.946Z,7.07
2022-10-23T18:23:04.744Z,9.27
2022-10-23T18:25:32.691Z,12.60
2022-10-23T18:28:02.480Z,8.45
2022-10-23T18:30:30.887Z,5.90
2022-10-23T18:33:00.095Z,6.57
2022-10-23T18:35:30.702Z,9.02
2022-10-23T18:37:58.485Z,7.80
2022-10-23T18:42:56.370Z,8.30
2022-10-23T18:45:24.234Z,7.65
2022-10-23T18:47:52.440Z,6.97
2022-10-23T18:50:23.502Z,9.43
2022-10-23T18:52:51.465Z,6.22
2022-10-23T18:55:19.510Z,9.40
2022-10-23T18:57:48.783Z,7.10
2022-10-23T19:00:17.077Z,9.93
2022-10-23T19:02:47.665Z,6.25
2022-10-23T19:05:17.972Z,6.13
2022-10-23T19:07:47.230Z,11.65
2022-10-23T19:10:18.007Z,7.70
2022-10-23T19:12:45.919Z,6.93
2022-10-23T19:15:16.546Z,6.93
2022-10-23T19:17:44.406Z,9.45
2022-10-23T19:20:15.559Z,8.13
2022-10-23T19:22:47.605Z,9.77
2022-10-23T19:25:20.567Z,8.38
2022-10-23T19:27:48.930Z,5.28
2022-10-23T19:30:21.916Z,10.18
2022-10-23T19:32:51.020Z,6.43
2022-10-23T19:35:21.289Z,8.68
2022-10-23T19:37:50.317Z,10.25
2022-10-23T19:40:18.268Z,5.95
2022-10-23T19:42:46.116Z,8.15
2022-10-23T19:47:45.255Z,6.57
2022-10-23T19:50:13.646Z,8.35
2022-10-23T19:52:41.718Z,6.45
2022-10-23T19:55:10.258Z,6.50
2022-10-23T19:57:38.277Z,8.88
2022-10-23T20:00:08.490Z,7.93
2022-10-23T20:02:36.971Z,11.27
2022-10-23T20:05:07.674Z,6.47
2022-10-23T20:07:36.079Z,8.38
2022-10-23T20:10:04.817Z,6.82
2022-10-23T20:12:32.739Z,9.93
2022-10-23T20:15:00.665Z,6.53
2022-10-23T20:17:28.329Z,6.63
2022-10-23T20:19:56.591Z,8.80
2022-10-23T20:22:25.639Z,5.78
2022-10-23T20:24:53.503Z,6.15
2022-10-23T20:27:21.190Z,7.28
2022-10-23T20:29:49.238Z,7.00
2022-10-23T20:32:17.400Z,6.15
2022-10-23T20:34:45.070Z,6.43
2022-10-23T20:37:12.686Z,5.55
2022-10-23T20:39:41.774Z,4.65
2022-10-23T20:42:09.496Z,9.35
2022-10-23T20:44:37.130Z,4.57
2022-10-23T20:47:04.823Z,6.00
2022-10-23T20:49:32.463Z,5.13
2022-10-23T20:52:00.141Z,7.28
2022-10-23T20:56:58.804Z,3.40
2022-10-23T20:59:26.920Z,5.82
2022-10-23T21:01:56.420Z,4.05
2022-10-23T21:04:27.486Z,4.00
2022-10-23T21:07:14.577Z,3.47
2022-10-23T21:09:42.622Z,3.70
2022-10-23T21:12:11.642Z,5.60
2022-10-23T21:14:39.306Z,4.38
2022-10-23T21:17:08.493Z,4.20
2022-10-23T21:19:36.569Z,3.40
2022-10-23T21:22:04.469Z,3.92
2022-10-23T21:26:59.597Z,4.65
2022-10-23T21:29:28.689Z,5.15
2022-10-23T21:31:58.799Z,3.03
2022-10-23T21:34:27.628Z,4.30
2022-10-23T21:39:43.530Z,4.78
2022-10-23T21:42:11.368Z,5.63
2022-10-23T21:47:08.170Z,6.70
2022-10-23T21:49:35.826Z,3.58
2022-10-23T21:52:03.503Z,4.22
2022-10-23T21:54:31.089Z,6.00
2022-10-23T21:56:58.736Z,4.85
2022-10-23T21:59:30.279Z,4.75
2022-10-23T22:02:00.898Z,3.67
2022-10-23T22:04:28.573Z,2.85
2022-10-23T22:06:56.241Z,2.67
2022-10-23T22:09:24.598Z,5.00
2022-10-23T22:11:53.271Z,6.05
2022-10-23T22:14:21.798Z,2.85
2022-10-23T22:16:50.090Z,4.05
2022-10-23T22:19:21.306Z,4.18
2022-10-23T22:21:50.139Z,5.90
2022-10-23T22:24:18.491Z,3.05
2022-10-23T22:26:49.202Z,6.20
2022-10-23T22:29:20.480Z,4.70
2022-10-23T22:31:49.774Z,3.42
2022-10-23T22:34:27.082Z,3.90
2022-10-23T22:37:10.081Z,7.35
2022-10-23T22:39:38.378Z,5.82
2022-10-23T22:42:06.081Z,5.05
2022-10-23T22:44:33.734Z,3.58
2022-10-23T22:47:01.338Z,4.90
2022-10-23T22:49:30.556Z,5.18
2022-10-23T22:51:58.174Z,6.05
2022-10-23T22:54:25.871Z,6.60
2022-10-23T22:56:53.522Z,6.13
2022-10-23T22:59:21.162Z,5.13
2022-10-23T23:01:50.201Z,6.07
2022-10-23T23:04:37.398Z,6.32
2022-10-23T23:07:08.023Z,6.28
2022-10-23T23:09:38.289Z,6.85
2022-10-23T23:12:06.135Z,5.10
2022-10-23T23:17:01.441Z,7.72
2022-10-23T23:19:29.057Z,7.25
2022-10-23T23:21:57.786Z,4.93
2022-10-23T23:24:27.244Z,6.28
2022-10-23T23:26:54.885Z,6.85
2022-10-23T23:29:22.648Z,3.47
2022-10-23T23:31:50.370Z,4.85
2022-10-23T23:34:18.053Z,6.82
2022-10-23T23:36:45.724Z,6.05
2022-10-23T23:39:13.351Z,4.75
2022-10-23T23:41:42.380Z,6.28
2022-10-23T23:44:10.593Z,3.88
2022-10-23T23:46:38.196Z,8.05
2022-10-23T23:49:05.851Z,7.63
2022-10-23T23:51:33.498Z,6.10
2022-10-23T23:54:01.136Z,6.78
2022-10-23T23:56:29.105Z,5.93
2022-10-23T23:58:58.467Z,5.57
